Terminal Aerodrome Forecast
Issued by NWS Billings, MT

Home | Current Version | Previous Version | Text Only | Print | Product List | Glossary On
Versions: 1 2 3 4 5 6 7 8 9 10 11 12 13 14 15 16 17 18 19 20 21 22
000
FTUS45 KBYZ 281725
TAFSHR
TAF
KSHR 281725Z 2818/2918 33009KT P6SM VCSH FEW070 OVC100
     FM282000 33014G24KT P6SM FEW030 SCT100
     FM290000 34007KT P6SM SCT100
     FM290600 VRB04KT P6SM SKC=

USA.gov is the U.S. government's official web portal to all federal, state and local government web resources and services.